Time;durP1;ratioP1;P1;durP2;ratioP2;P2;SDS_P1;SDS_P2;PMS_P1;PMS_P2;Temp;Humidity;BMP_temperature;BMP_pressure;BME280_temperature;BME280_humidity;BME280_pressure;Samples;Min_cycle;Max_cycle;Signal;HPM_P1;HPM_P2
2022/04/25 00:01:01;;;;;;;21.75;6.20;;;;;;;18.60;56.97;94359.63;5082412;28;20246;-74
2022/04/25 00:03:27;;;;;;;18.30;5.78;;;;;;;18.52;57.28;94356.81;5076699;28;20197;-73
2022/04/25 00:05:55;;;;;;;17.23;7.03;;;;;;;18.42;58.13;94361.00;5083228;28;20196;-73
2022/04/25 00:08:22;;;;;;;12.35;5.55;;;;;;;18.49;59.06;94361.34;5081251;28;20261;-74
2022/04/25 00:10:49;;;;;;;13.05;6.05;;;;;;;18.35;59.29;94364.94;5081762;28;20211;-73
2022/04/25 00:13:16;;;;;;;16.55;5.20;;;;;;;17.82;60.66;94371.47;5080261;28;20193;-74
2022/04/25 00:15:43;;;;;;;13.38;5.65;;;;;;;18.21;59.48;94375.47;5081439;28;20893;-73
2022/04/25 00:18:10;;;;;;;10.75;5.13;;;;;;;18.32;58.90;94362.59;5081091;28;20725;-75
2022/04/25 00:20:36;;;;;;;12.77;5.28;;;;;;;18.35;59.10;94363.19;5080522;28;20302;-73
2022/04/25 00:23:05;;;;;;;15.68;5.25;;;;;;;18.47;58.66;94358.06;5081457;28;20193;-72
2022/04/25 00:25:32;;;;;;;21.77;6.70;;;;;;;18.50;58.25;94368.13;5081560;28;20255;-73
2022/04/25 00:27:59;;;;;;;61.60;27.48;;;;;;;18.21;59.26;94367.75;5081641;28;20672;-75
2022/04/25 00:30:28;;;;;;;39.90;18.20;;;;;;;18.02;60.12;94358.00;5082590;28;20874;-72
2022/04/25 00:32:55;;;;;;;30.85;12.38;;;;;;;17.95;60.34;94367.09;5079959;28;20200;-72
2022/04/25 00:35:22;;;;;;;18.65;7.10;;;;;;;17.86;60.71;94362.63;5079974;28;20202;-73
2022/04/25 00:37:49;;;;;;;16.35;7.05;;;;;;;17.82;61.52;94368.91;5078344;28;20245;-73
2022/04/25 00:40:19;;;;;;;21.05;6.88;;;;;;;17.61;61.73;94337.84;5080665;28;20232;-74
2022/04/25 00:42:46;;;;;;;20.90;6.28;;;;;;;17.91;61.19;94365.69;5080036;28;20254;-74
2022/04/25 00:45:13;;;;;;;17.85;5.60;;;;;;;17.68;61.76;94357.06;5080215;28;20216;-73
2022/04/25 00:47:41;;;;;;;23.45;6.32;;;;;;;17.90;60.47;94356.31;5077882;28;20209;-72
2022/04/25 00:50:09;;;;;;;17.15;6.53;;;;;;;17.71;61.39;94364.56;5080053;28;20205;-72
2022/04/25 00:52:37;;;;;;;16.92;6.22;;;;;;;17.44;62.77;94359.63;5079228;28;20207;-74
2022/04/25 00:55:07;;;;;;;18.95;5.70;;;;;;;17.24;63.70;94357.66;5077778;28;20197;-72
2022/04/25 00:57:36;;;;;;;18.95;6.15;;;;;;;16.84;64.84;94346.78;5082113;28;20200;-72
2022/04/25 01:00:06;;;;;;;16.70;7.10;;;;;;;16.28;67.47;94342.00;5080148;28;20723;-73
2022/04/25 01:02:33;;;;;;;15.60;4.68;;;;;;;16.62;64.81;94343.09;5081025;28;20197;-72
2022/04/25 01:05:00;;;;;;;17.00;6.35;;;;;;;16.52;65.86;94331.00;5080164;28;20189;-72
2022/04/25 01:07:27;;;;;;;20.98;5.65;;;;;;;16.70;65.23;94329.78;5081619;28;20211;-71
2022/04/25 01:09:55;;;;;;;22.20;6.30;;;;;;;16.56;65.80;94322.19;5081401;28;20282;-72
2022/04/25 01:12:22;;;;;;;21.45;5.90;;;;;;;16.85;64.90;94317.63;5081028;28;20578;-72
2022/04/25 01:14:58;;;;;;;17.08;6.57;;;;;;;17.12;63.17;94315.69;5080159;28;20293;-75
2022/04/25 01:17:25;;;;;;;22.67;6.82;;;;;;;17.35;62.70;94316.59;5080921;28;20305;-74
2022/04/25 01:19:52;;;;;;;17.90;5.70;;;;;;;17.28;62.66;94315.44;5080060;28;20201;-74
2022/04/25 01:22:22;;;;;;;19.70;5.95;;;;;;;17.13;63.83;94311.38;5081170;28;20204;-74
2022/04/25 01:27:35;;;;;;;16.95;6.00;;;;;;;17.19;63.88;94300.66;5082015;28;20900;-73
2022/04/25 01:30:03;;;;;;;18.23;6.65;;;;;;;17.19;63.21;94305.81;5080803;28;20197;-73
2022/04/25 01:32:30;;;;;;;28.17;5.95;;;;;;;17.33;62.11;94300.50;5081300;28;20722;-73
2022/04/25 01:34:57;;;;;;;21.88;5.78;;;;;;;17.40;63.23;94294.00;5080445;28;20264;-73
2022/04/25 01:37:24;;;;;;;16.20;6.45;;;;;;;17.51;62.93;94286.34;5080721;28;20236;-72
2022/04/25 01:39:54;;;;;;;21.58;5.97;;;;;;;17.46;62.58;94306.41;5079568;28;20249;-74
2022/04/25 01:42:22;;;;;;;19.30;6.18;;;;;;;17.13;63.83;94304.47;5081251;28;20192;-73
2022/04/25 01:44:49;;;;;;;19.25;6.40;;;;;;;17.14;63.76;94307.88;5080401;28;20700;-72
2022/04/25 01:47:17;;;;;;;11.13;5.93;;;;;;;17.46;62.96;94301.25;5081164;28;20209;-72
2022/04/25 01:49:44;;;;;;;26.65;6.88;;;;;;;17.55;62.62;94303.16;5081188;28;20270;-73
2022/04/25 01:52:18;;;;;;;17.90;6.70;;;;;;;17.72;61.87;94308.84;5079733;28;20212;-73
2022/04/25 01:54:45;;;;;;;20.25;6.40;;;;;;;17.60;62.16;94310.53;5082033;28;20588;-72
2022/04/25 01:57:13;;;;;;;10.77;6.07;;;;;;;17.20;63.72;94290.28;5085562;28;21093;-72
2022/04/25 01:59:40;;;;;;;23.25;5.93;;;;;;;17.26;63.43;94286.47;5084563;28;20649;-73
2022/04/25 02:02:07;;;;;;;20.70;7.07;;;;;;;17.24;63.21;94272.91;5083648;28;21418;-73
2022/04/25 02:04:34;;;;;;;16.75;7.20;;;;;;;17.38;63.06;94274.47;5084103;28;20205;-72
2022/04/25 02:07:01;;;;;;;21.92;5.75;;;;;;;17.44;62.49;94274.03;5085798;28;20197;-71
2022/04/25 02:09:27;;;;;;;12.57;6.35;;;;;;;17.22;63.18;94273.03;5085329;28;20274;-73
2022/04/25 02:11:55;;;;;;;17.63;6.97;;;;;;;16.77;65.02;94274.56;5085705;28;20600;-73
2022/04/25 02:14:24;;;;;;;15.30;6.60;;;;;;;16.50;66.28;94279.00;5084157;28;20726;-73
2022/04/25 02:16:50;;;;;;;16.13;7.13;;;;;;;16.84;65.23;94288.56;5085142;28;20201;-72
2022/04/25 02:19:17;;;;;;;15.88;6.50;;;;;;;17.18;63.60;94304.16;5084996;28;20286;-72
2022/04/25 02:21:44;;;;;;;15.88;7.82;;;;;;;17.18;63.30;94288.75;5081639;28;20239;-72
2022/04/25 02:24:11;;;;;;;15.70;6.38;;;;;;;16.96;64.06;94297.16;5082540;28;20285;-73
2022/04/25 02:26:38;;;;;;;16.65;6.93;;;;;;;17.17;63.23;94279.41;5081467;28;20234;-73
2022/04/25 02:29:04;;;;;;;26.67;7.50;;;;;;;16.64;65.40;94271.19;5082487;28;20224;-72
2022/04/25 02:31:32;;;;;;;21.60;6.75;;;;;;;16.74;64.84;94287.59;5082225;28;20201;-72
2022/04/25 02:33:59;;;;;;;23.45;6.90;;;;;;;16.58;65.78;94292.91;5082840;28;20198;-72
2022/04/25 02:36:26;;;;;;;13.05;6.13;;;;;;;16.61;65.75;94297.03;5083028;28;20205;-74
2022/04/25 02:38:53;;;;;;;20.13;6.35;;;;;;;16.91;64.33;94282.09;5083897;28;20216;-72
2022/04/25 02:41:20;;;;;;;17.92;6.47;;;;;;;16.96;64.04;94267.19;5084254;28;20996;-73
2022/04/25 02:43:46;;;;;;;14.77;7.20;;;;;;;16.66;65.38;94274.47;5084367;28;20242;-72
2022/04/25 02:46:15;;;;;;;20.23;7.28;;;;;;;16.39;65.86;94266.91;5083582;28;20688;-72
2022/04/25 02:48:44;;;;;;;23.67;7.93;;;;;;;16.48;65.38;94268.03;5085235;28;20270;-72
2022/04/25 02:51:12;;;;;;;22.45;8.15;;;;;;;16.91;63.92;94259.00;5083007;28;20205;-73
2022/04/25 02:53:39;;;;;;;16.70;7.63;;;;;;;16.64;64.83;94248.09;5082161;28;20205;-72
2022/04/25 02:56:07;;;;;;;22.27;8.77;;;;;;;16.42;65.77;94247.94;5083893;28;20193;-74
2022/04/25 02:58:35;;;;;;;21.80;8.65;;;;;;;16.14;67.03;94249.00;5084020;28;20344;-72
2022/04/25 03:01:04;;;;;;;17.20;8.60;;;;;;;16.33;66.53;94247.63;5084089;28;20287;-73
2022/04/25 03:03:32;;;;;;;20.65;7.68;;;;;;;16.23;67.16;94233.81;5085663;28;20207;-72
2022/04/25 03:06:01;;;;;;;18.65;7.93;;;;;;;16.54;66.13;94252.22;5082827;28;20208;-73
2022/04/25 03:08:29;;;;;;;18.55;8.10;;;;;;;16.47;66.47;94256.13;5085368;28;20717;-75
2022/04/25 03:10:56;;;;;;;23.30;9.05;;;;;;;16.65;65.31;94258.25;5083845;28;20700;-74
2022/04/25 03:13:24;;;;;;;18.08;8.13;;;;;;;16.56;65.45;94245.25;5083788;28;20301;-74
2022/04/25 03:15:51;;;;;;;20.83;7.80;;;;;;;16.40;66.23;94254.91;5085111;28;20208;-73
2022/04/25 03:18:19;;;;;;;20.98;8.13;;;;;;;16.45;66.11;94265.66;5084684;28;20273;-73
2022/04/25 03:20:48;;;;;;;15.73;7.75;;;;;;;16.33;67.04;94260.44;5084417;28;20769;-72
2022/04/25 03:23:16;;;;;;;19.17;8.80;;;;;;;16.51;66.16;94262.69;5085347;28;20197;-72
2022/04/25 03:25:44;;;;;;;17.95;8.88;;;;;;;16.57;65.36;94244.31;5084471;28;20279;-72
2022/04/25 03:28:11;;;;;;;21.95;8.60;;;;;;;16.64;65.49;94261.75;5085396;28;20292;-73
2022/04/25 03:30:38;;;;;;;20.95;7.65;;;;;;;16.72;65.40;94260.41;5084469;28;20640;-72
2022/04/25 03:33:05;;;;;;;16.60;8.57;;;;;;;16.55;65.75;94248.72;5083886;28;20197;-73
2022/04/25 03:35:32;;;;;;;25.42;7.45;;;;;;;16.80;64.24;94274.34;5087544;28;20217;-72
2022/04/25 03:38:00;;;;;;;19.23;6.43;;;;;;;16.62;64.42;94280.69;5084434;28;20672;-73
2022/04/25 03:40:28;;;;;;;19.65;6.43;;;;;;;16.09;65.74;94292.06;5083527;28;20209;-71
2022/04/25 03:42:55;;;;;;;20.05;6.78;;;;;;;15.98;66.52;94290.22;5084460;28;20194;-72
2022/04/25 03:45:23;;;;;;;12.93;7.32;;;;;;;15.69;67.06;94268.28;5083606;28;20328;-72
2022/04/25 03:47:50;;;;;;;21.20;6.82;;;;;;;15.97;67.23;94293.72;5084875;28;20197;-72
2022/04/25 03:50:17;;;;;;;23.02;7.75;;;;;;;15.59;68.39;94294.47;5083024;28;20201;-72
2022/04/25 03:52:46;;;;;;;22.13;7.70;;;;;;;15.63;68.50;94292.53;5081146;28;20212;-72
2022/04/25 03:58:00;;;;;;;27.60;8.23;;;;;;;15.95;67.10;94295.56;5083894;28;20292;-72
2022/04/25 04:00:27;;;;;;;23.13;8.13;;;;;;;16.17;65.80;94306.00;5083264;28;21420;-73
2022/04/25 04:02:54;;;;;;;20.02;7.68;;;;;;;16.06;66.36;94307.66;5082832;28;20212;-73
2022/04/25 04:05:21;;;;;;;18.90;7.47;;;;;;;16.26;66.06;94310.53;5082752;28;20247;-72
2022/04/25 04:07:49;;;;;;;15.65;7.38;;;;;;;16.58;64.82;94304.94;5082900;28;20598;-72
2022/04/25 04:10:17;;;;;;;28.90;7.97;;;;;;;16.55;64.18;94305.16;5084155;28;20598;-72
2022/04/25 04:12:46;;;;;;;19.70;6.00;;;;;;;16.71;63.48;94316.03;5080776;28;20273;-72
2022/04/25 04:15:15;;;;;;;21.33;6.82;;;;;;;16.29;63.76;94292.38;5082901;28;20343;-73
2022/04/25 04:17:43;;;;;;;46.75;21.20;;;;;;;16.65;63.69;94311.31;5081549;28;20224;-73
2022/04/25 04:20:12;;;;;;;58.78;25.15;;;;;;;17.30;62.71;94308.44;5083502;28;20213;-73
2022/04/25 04:22:39;;;;;;;24.48;9.25;;;;;;;17.85;60.09;94310.38;5083033;28;20233;-72
2022/04/25 04:25:08;;;;;;;26.40;6.88;;;;;;;18.34;57.98;94306.72;5083197;28;20708;-72
2022/04/25 04:27:35;;;;;;;19.13;6.75;;;;;;;18.16;57.55;94316.66;5085457;28;20189;-74
2022/04/25 04:30:05;;;;;;;21.73;6.53;;;;;;;18.00;58.70;94309.28;5085939;28;20193;-73
2022/04/25 04:32:34;;;;;;;22.10;6.88;;;;;;;17.79;59.41;94310.03;5085312;28;20201;-73
2022/04/25 04:35:02;;;;;;;16.33;5.88;;;;;;;17.79;59.88;94320.31;5085227;28;20216;-74
2022/04/25 04:37:29;;;;;;;27.67;7.82;;;;;;;18.26;58.42;94315.03;5083948;28;20285;-72
2022/04/25 04:40:28;;;;;;;16.98;7.32;;;;;;;18.68;56.45;94328.97;5085394;28;20200;-75
2022/04/25 04:42:44;;;;;;;18.25;6.75;;;;;;;18.63;56.58;94323.38;5083848;28;20224;-73
2022/04/25 04:45:12;;;;;;;18.15;7.55;;;;;;;19.33;54.70;94327.34;5085341;28;20749;-74
2022/04/25 04:47:41;;;;;;;20.23;6.65;;;;;;;19.31;54.50;94332.59;5084930;28;20205;-73
2022/04/25 04:50:14;;;;;;;18.48;6.15;;;;;;;18.94;55.09;94337.28;5085042;28;20205;-73
2022/04/25 04:52:42;;;;;;;24.77;7.43;;;;;;;19.03;55.77;94341.72;5085409;28;20212;-73
2022/04/25 04:55:09;;;;;;;16.65;6.43;;;;;;;19.72;54.38;94345.75;5085628;28;20205;-74
2022/04/25 04:57:37;;;;;;;25.40;6.60;;;;;;;20.47;51.80;94346.41;5084244;28;20204;-73
2022/04/25 05:00:04;;;;;;;16.83;7.00;;;;;;;21.00;50.09;94352.22;5085505;28;20781;-73
2022/04/25 05:02:32;;;;;;;20.13;6.40;;;;;;;21.57;48.76;94342.13;5083909;28;20313;-73
2022/04/25 05:05:01;;;;;;;18.27;6.03;;;;;;;21.94;47.64;94345.69;5084802;28;20921;-73
2022/04/25 05:07:27;;;;;;;15.98;6.43;;;;;;;22.17;47.43;94354.00;5084922;28;20208;-73
2022/04/25 05:09:54;;;;;;;21.50;6.93;;;;;;;22.14;46.96;94359.44;5085684;28;20283;-73
2022/04/25 05:12:21;;;;;;;20.90;6.68;;;;;;;22.81;45.37;94355.88;5084608;28;20285;-73
2022/04/25 05:14:48;;;;;;;26.20;8.18;;;;;;;23.31;43.45;94358.09;5084088;28;20209;-73
2022/04/25 05:17:15;;;;;;;19.08;6.15;;;;;;;24.89;40.26;94352.94;5084332;28;20619;-73
2022/04/25 05:19:41;;;;;;;19.70;5.65;;;;;;;25.82;37.80;94358.16;5085763;28;20201;-73
2022/04/25 05:22:10;;;;;;;14.75;4.95;;;;;;;26.16;37.56;94353.63;5085020;28;20229;-73
2022/04/25 05:24:36;;;;;;;23.30;6.00;;;;;;;27.06;35.75;94356.94;5082553;28;20225;-72
2022/04/25 05:27:04;;;;;;;24.63;5.20;;;;;;;27.74;34.62;94358.91;5085152;28;20208;-73
2022/04/25 05:29:32;;;;;;;18.88;5.65;;;;;;;28.44;32.77;94358.75;5083211;28;20295;-73
2022/04/25 05:31:58;;;;;;;14.82;4.93;;;;;;;28.74;32.64;94354.34;5085276;28;20282;-73
2022/04/25 05:34:25;;;;;;;22.55;5.80;;;;;;;28.47;32.90;94357.56;5083688;28;20637;-73
2022/04/25 05:36:52;;;;;;;23.65;5.50;;;;;;;28.41;32.60;94359.91;5084702;28;20212;-72
2022/04/25 05:39:20;;;;;;;20.17;5.28;;;;;;;29.17;31.34;94350.16;5082778;28;20269;-72
2022/04/25 05:41:47;;;;;;;21.48;5.72;;;;;;;30.13;29.89;94362.16;5085025;28;20278;-73
2022/04/25 05:44:14;;;;;;;17.40;5.10;;;;;;;31.52;28.53;94348.16;5083724;28;20204;-73
2022/04/25 05:46:41;;;;;;;16.38;5.95;;;;;;;31.27;28.45;94362.81;5084039;28;20285;-73
2022/04/25 05:52:02;;;;;;;16.90;4.95;;;;;;;31.14;28.49;94365.38;5048228;28;20205;-75
2022/04/25 05:54:30;;;;;;;22.80;5.70;;;;;;;31.27;28.34;94354.94;5082092;28;20380;-74
2022/04/25 05:56:57;;;;;;;13.98;4.80;;;;;;;31.89;27.69;94362.66;5082368;28;20210;-74
2022/04/25 05:59:24;;;;;;;23.98;5.55;;;;;;;32.29;26.55;94358.31;5081517;28;21132;-75
2022/04/25 06:01:53;;;;;;;19.15;5.00;;;;;;;31.27;28.02;94368.06;5082946;28;20305;-73
2022/04/25 06:04:20;;;;;;;24.90;4.78;;;;;;;31.20;27.84;94369.81;5081253;28;20197;-73
2022/04/25 06:06:47;;;;;;;15.93;5.10;;;;;;;30.77;28.46;94356.84;5083063;28;20197;-74
2022/04/25 06:09:15;;;;;;;23.17;5.47;;;;;;;31.39;28.03;94353.38;5082586;28;20197;-76
2022/04/25 06:11:44;;;;;;;17.42;5.40;;;;;;;31.51;27.42;94357.06;5083835;28;20201;-73
2022/04/25 06:14:11;;;;;;;18.52;5.03;;;;;;;32.09;26.96;94341.69;5083370;28;20201;-73
2022/04/25 06:16:39;;;;;;;17.70;5.22;;;;;;;32.45;26.13;94339.47;5084714;28;20302;-74
2022/04/25 06:19:06;;;;;;;14.93;4.35;;;;;;;33.04;25.63;94332.56;5084018;28;20262;-74
2022/04/25 06:21:32;;;;;;;16.30;4.55;;;;;;;32.55;26.25;94333.00;5084545;28;20286;-75
2022/04/25 06:24:00;;;;;;;23.60;5.72;;;;;;;32.60;26.10;94328.75;5083461;28;20202;-74
2022/04/25 06:26:28;;;;;;;26.23;6.20;;;;;;;32.59;26.16;94329.78;5084604;28;20205;-74
2022/04/25 06:28:56;;;;;;;16.55;4.80;;;;;;;33.22;25.23;94337.16;5084007;28;20203;-74
2022/04/25 06:31:23;;;;;;;20.88;5.55;;;;;;;32.91;25.61;94345.75;5084084;28;20638;-75
2022/04/25 06:33:50;;;;;;;14.35;5.15;;;;;;;33.35;25.05;94334.53;5083184;28;20292;-74
2022/04/25 06:36:17;;;;;;;18.50;5.53;;;;;;;33.93;24.42;94337.06;5083997;28;20193;-75
2022/04/25 06:38:44;;;;;;;15.50;4.65;;;;;;;34.88;24.16;94341.28;5086620;28;20241;-74
2022/04/25 06:41:11;;;;;;;16.75;5.28;;;;;;;34.38;24.57;94336.00;5088013;28;20211;-74
2022/04/25 06:43:39;;;;;;;12.95;4.78;;;;;;;34.09;24.54;94336.59;5086700;28;20572;-76
2022/04/25 06:46:07;;;;;;;19.58;5.47;;;;;;;34.31;24.47;94340.50;5088041;28;20189;-75
2022/04/25 06:48:34;;;;;;;17.55;6.15;;;;;;;33.50;24.56;94327.16;5087241;28;20219;-74
2022/04/25 06:51:01;;;;;;;11.52;4.63;;;;;;;34.03;24.10;94332.16;5086014;28;20274;-74
2022/04/25 06:53:28;;;;;;;17.42;5.13;;;;;;;34.04;24.47;94331.13;5085869;28;20558;-74
2022/04/25 06:55:55;;;;;;;20.23;4.63;;;;;;;33.67;24.56;94328.28;5087318;28;20205;-76
2022/04/25 06:58:22;;;;;;;15.45;4.93;;;;;;;34.31;24.50;94324.69;5086042;28;20283;-76
2022/04/25 07:00:49;;;;;;;17.50;5.03;;;;;;;33.74;24.85;94329.06;5088179;28;20208;-74
2022/04/25 07:03:18;;;;;;;23.05;5.80;;;;;;;33.24;25.30;94319.31;5085448;28;20226;-73
2022/04/25 07:05:44;;;;;;;19.02;5.65;;;;;;;34.05;24.46;94319.56;5086882;28;20258;-76
2022/04/25 07:08:11;;;;;;;13.27;4.53;;;;;;;33.83;24.01;94326.22;5086810;28;20204;-74
2022/04/25 07:10:38;;;;;;;30.80;14.02;;;;;;;34.15;23.85;94327.84;5086261;28;20208;-75
2022/04/25 07:13:05;;;;;;;15.60;6.30;;;;;;;33.66;24.33;94325.84;5087811;28;20675;-74
2022/04/25 07:15:36;;;;;;;21.42;6.10;;;;;;;33.01;25.50;94311.91;5086811;28;20193;-74
2022/04/25 07:18:03;;;;;;;15.05;5.85;;;;;;;30.65;28.52;94325.09;5087419;28;20208;-76
2022/04/25 07:20:32;;;;;;;25.13;7.05;;;;;;;30.85;28.40;94319.97;5086457;28;20333;-73
2022/04/25 07:28:52;;;;;;;21.83;5.22;;;;;;;31.81;26.56;94304.22;5086601;28;20208;-75
2022/04/25 07:31:20;;;;;;;23.55;5.25;;;;;;;31.57;26.70;94314.25;5086945;28;20284;-74
2022/04/25 07:33:47;;;;;;;15.82;4.68;;;;;;;32.11;26.33;94310.75;5086330;28;20201;-73
2022/04/25 07:36:17;;;;;;;22.70;5.75;;;;;;;32.21;25.92;94311.16;5087207;28;20251;-74
2022/04/25 07:38:45;;;;;;;20.02;4.40;;;;;;;31.86;26.29;94302.63;5085798;28;20201;-73
2022/04/25 07:41:13;;;;;;;15.82;4.78;;;;;;;30.58;27.64;94303.25;5086037;28;20285;-73
2022/04/25 07:43:40;;;;;;;17.55;4.63;;;;;;;30.25;28.05;94312.66;5085609;28;20607;-74
2022/04/25 07:46:07;;;;;;;94.63;49.53;;;;;;;30.41;27.77;94299.28;5086923;28;20308;-73
2022/04/25 07:48:34;;;;;;;22.80;5.85;;;;;;;29.38;27.93;94304.91;5087289;28;20204;-74
2022/04/25 07:51:01;;;;;;;34.45;7.78;;;;;;;29.09;27.18;94300.53;5086624;28;20204;-76
2022/04/25 07:53:30;;;;;;;30.15;6.95;;;;;;;29.32;25.50;94300.41;5085006;28;20201;-72
2022/04/25 07:55:57;;;;;;;31.65;12.38;;;;;;;29.44;26.44;94283.28;5085707;28;20207;-78
2022/04/25 07:58:24;;;;;;;16.15;4.43;;;;;;;29.20;24.74;94280.97;5085556;28;20661;-73
2022/04/25 08:00:50;;;;;;;16.88;5.50;;;;;;;29.44;25.59;94284.09;5086862;28;20209;-73
2022/04/25 08:03:17;;;;;;;28.60;6.07;;;;;;;29.10;26.11;94279.44;5084758;28;20282;-72
2022/04/25 08:05:44;;;;;;;20.33;4.05;;;;;;;28.29;25.81;94277.69;5085573;28;20216;-73
2022/04/25 08:08:11;;;;;;;16.92;4.50;;;;;;;28.18;26.06;94282.53;5086419;28;20330;-74
2022/04/25 08:10:39;;;;;;;20.08;4.47;;;;;;;27.56;27.38;94287.88;5086344;28;20208;-73
2022/04/25 08:18:35;;;;;;;25.50;6.88;;;;;;;27.80;27.34;94285.09;5085926;28;20590;-74
2022/04/25 08:21:01;;;;;;;21.80;4.40;;;;;;;28.01;26.82;94285.25;5086971;28;20220;-73
2022/04/25 08:23:28;;;;;;;28.60;4.60;;;;;;;27.39;26.23;94292.38;5086042;28;20236;-73
2022/04/25 08:25:56;;;;;;;21.08;4.03;;;;;;;26.73;26.83;94283.19;5086313;28;20797;-74
2022/04/25 08:28:25;;;;;;;26.40;4.47;;;;;;;26.51;27.31;94278.69;5086128;28;20941;-76
2022/04/25 08:30:52;;;;;;;26.88;4.30;;;;;;;26.82;27.91;94274.38;5085303;28;20262;-75
2022/04/25 08:33:19;;;;;;;37.83;6.43;;;;;;;27.09;28.16;94273.13;5085605;28;20193;-75
2022/04/25 08:35:45;;;;;;;19.83;4.78;;;;;;;26.54;26.93;94275.75;5085566;28;20338;-75
2022/04/25 08:38:12;;;;;;;27.92;4.63;;;;;;;26.58;26.90;94274.44;5086573;28;20208;-74
2022/04/25 08:40:41;;;;;;;12.77;3.55;;;;;;;26.77;27.02;94279.25;5085592;28;20317;-74
2022/04/25 08:43:09;;;;;;;29.52;4.03;;;;;;;26.43;27.27;94266.53;5084385;28;20730;-74
2022/04/25 08:45:38;;;;;;;33.17;6.95;;;;;;;26.32;27.67;94267.69;5081218;28;20653;-74
2022/04/25 08:48:07;;;;;;;34.70;11.02;;;;;;;26.52;29.28;94272.50;5085449;28;20632;-73
2022/04/25 08:50:34;;;;;;;23.27;4.65;;;;;;;26.73;26.96;94267.53;5085275;28;20204;-74
2022/04/25 08:53:00;;;;;;;30.70;7.38;;;;;;;26.63;27.63;94266.94;5085436;28;20671;-74
2022/04/25 08:55:27;;;;;;;43.40;14.77;;;;;;;26.68;27.01;94264.66;5083990;28;20285;-74
2022/04/25 08:57:55;;;;;;;20.45;6.57;;;;;;;27.20;28.30;94266.75;5085031;28;20673;-74
2022/04/25 09:00:23;;;;;;;22.48;4.30;;;;;;;27.15;28.17;94240.34;5084395;28;20202;-77
2022/04/25 09:02:50;;;;;;;24.00;3.58;;;;;;;26.88;25.43;94255.44;5084178;28;20293;-74
2022/04/25 09:05:17;;;;;;;25.90;4.10;;;;;;;26.43;26.15;94249.09;5084260;28;20727;-73
2022/04/25 09:07:45;;;;;;;21.88;3.70;;;;;;;25.86;26.21;94248.34;5084384;28;20197;-74
2022/04/25 09:10:17;;;;;;;18.48;3.72;;;;;;;25.85;28.26;94256.31;5081393;28;20224;-74
2022/04/25 09:12:46;;;;;;;15.32;3.30;;;;;;;25.94;26.31;94256.16;5083623;28;20736;-74
2022/04/25 09:15:16;;;;;;;22.33;6.38;;;;;;;25.82;26.94;94241.03;5084739;28;20965;-75
2022/04/25 09:17:45;;;;;;;33.08;11.90;;;;;;;25.95;26.69;94246.56;5083463;28;20209;-74
2022/04/25 09:20:11;;;;;;;13.35;4.78;;;;;;;26.17;27.00;94235.47;5082914;28;20308;-74
2022/04/25 09:22:40;;;;;;;14.15;4.57;;;;;;;26.36;27.86;94235.09;5084615;28;20305;-74
2022/04/25 09:25:08;;;;;;;16.45;4.28;;;;;;;26.79;26.70;94235.59;5078690;28;20378;-74
2022/04/25 09:27:36;;;;;;;15.02;3.47;;;;;;;26.91;26.40;94234.25;5081268;28;20831;-74
2022/04/25 09:30:24;;;;;;;19.17;3.60;;;;;;;27.20;25.94;94238.03;5074806;28;20200;-74
2022/04/25 09:32:54;;;;;;;14.85;3.50;;;;;;;27.09;24.61;94237.44;5074992;28;20196;-75
2022/04/25 09:35:29;;;;;;;14.00;3.53;;;;;;;27.06;21.98;94243.00;5079231;28;20193;-73
2022/04/25 09:37:58;;;;;;;16.13;3.95;;;;;;;27.28;22.74;94240.59;5078678;28;20572;-74
2022/04/25 09:40:28;;;;;;;20.92;3.67;;;;;;;27.53;23.22;94239.44;5081573;28;20229;-73
2022/04/25 09:43:06;;;;;;;11.52;3.38;;;;;;;28.00;22.54;94230.59;5080227;28;20347;-74
2022/04/25 09:45:34;;;;;;;22.08;3.20;;;;;;;27.98;21.51;94237.78;5078998;28;20586;-74
2022/04/25 09:48:03;;;;;;;8.18;2.85;;;;;;;28.25;21.59;94229.38;5079685;28;20208;-73
2022/04/25 09:50:30;;;;;;;21.48;3.95;;;;;;;28.30;22.92;94221.84;5080776;28;20207;-76
2022/04/25 09:52:59;;;;;;;11.50;3.65;;;;;;;28.23;22.86;94228.75;5079718;28;20201;-74
2022/04/25 09:55:28;;;;;;;26.33;3.33;;;;;;;27.58;21.55;94218.88;5082611;28;20206;-74
2022/04/25 09:57:55;;;;;;;9.90;2.53;;;;;;;26.97;21.64;94217.16;5079588;28;20198;-74
2022/04/25 10:00:33;;;;;;;16.10;3.90;;;;;;;26.26;22.54;94225.81;5077290;28;20737;-73
2022/04/25 10:03:02;;;;;;;23.92;4.93;;;;;;;26.36;23.23;94236.91;5080275;28;20290;-75
2022/04/25 10:05:40;;;;;;;28.35;4.43;;;;;;;26.46;23.26;94202.84;5080127;28;20197;-74
2022/04/25 10:08:08;;;;;;;18.98;6.82;;;;;;;26.78;24.23;94215.72;5078223;28;20323;-74
2022/04/25 10:10:35;;;;;;;14.68;5.03;;;;;;;27.06;24.26;94211.69;5079841;28;20205;-73
2022/04/25 10:13:02;;;;;;;12.32;4.60;;;;;;;27.27;23.95;94207.66;5078660;28;20194;-75
2022/04/25 10:15:29;;;;;;;13.32;3.35;;;;;;;27.27;23.58;94208.47;5081332;27;20205;-78
2022/04/25 10:17:57;;;;;;;19.67;4.03;;;;;;;27.68;22.99;94193.34;5088883;27;20206;-75
2022/04/25 10:20:26;;;;;;;21.55;3.25;;;;;;;27.41;23.21;94214.75;5089981;28;20218;-76
2022/04/25 10:22:54;;;;;;;12.43;2.97;;;;;;;27.66;22.61;94197.94;5093012;28;20233;-74
2022/04/25 10:25:20;;;;;;;15.80;2.45;;;;;;;27.65;20.35;94195.50;5092264;28;20261;-75
2022/04/25 10:27:48;;;;;;;14.07;3.63;;;;;;;27.65;21.31;94200.72;5091328;28;20238;-74
2022/04/25 10:30:18;;;;;;;15.55;4.88;;;;;;;27.51;21.07;94204.88;5092157;28;20198;-74
2022/04/25 10:32:45;;;;;;;9.93;3.53;;;;;;;27.52;22.10;94196.06;5091912;28;20201;-75
2022/04/25 10:35:16;;;;;;;19.75;6.55;;;;;;;27.73;22.10;94191.00;5091743;28;20198;-75
2022/04/25 10:37:45;;;;;;;14.27;2.75;;;;;;;28.12;22.33;94192.63;5090845;28;20208;-74
2022/04/25 10:40:14;;;;;;;17.52;4.40;;;;;;;28.10;22.47;94191.97;5091511;28;20205;-75
2022/04/25 10:45:55;;;;;;;13.40;3.35;;;;;;;28.79;21.89;94206.38;5092087;28;20198;-74
2022/04/25 10:48:21;;;;;;;9.13;2.53;;;;;;;28.93;19.19;94191.72;5091419;28;20201;-75
2022/04/25 10:51:09;;;;;;;11.98;3.10;;;;;;;29.06;20.00;94189.22;5092124;28;20194;-75
2022/04/25 10:53:59;;;;;;;19.10;3.92;;;;;;;29.05;20.05;94205.91;5091745;28;20197;-75
2022/04/25 10:56:26;;;;;;;10.00;3.67;;;;;;;29.31;20.06;94205.38;5091496;28;20194;-75
2022/04/25 10:59:24;;;;;;;11.70;2.63;;;;;;;29.31;19.90;94209.81;5091641;28;20198;-76
2022/04/25 11:01:51;;;;;;;11.25;3.45;;;;;;;29.03;20.60;94207.91;5091355;28;20956;-76
2022/04/25 11:04:18;;;;;;;12.45;2.72;;;;;;;28.60;20.87;94211.38;5091345;28;20225;-74
2022/04/25 11:06:46;;;;;;;10.73;2.55;;;;;;;28.44;21.36;94218.44;5091810;28;20275;-75
2022/04/25 11:09:37;;;;;;;16.17;3.70;;;;;;;28.00;24.74;94220.94;5091255;28;20190;-75
2022/04/25 11:12:04;;;;;;;18.55;3.47;;;;;;;28.01;24.86;94221.75;5091629;28;20198;-74
2022/04/25 11:14:31;;;;;;;51.13;27.65;;;;;;;28.11;25.60;94215.31;5090194;28;20229;-74
2022/04/25 11:17:11;;;;;;;15.18;3.20;;;;;;;28.51;24.81;94217.69;5091471;28;20221;-76
2022/04/25 11:19:51;;;;;;;11.45;4.30;;;;;;;28.88;24.54;94215.00;5091545;28;20198;-75
2022/04/25 11:22:50;;;;;;;6.05;3.03;;;;;;;28.85;23.80;94207.50;5091670;28;20222;-74
2022/04/25 11:25:44;;;;;;;12.13;3.17;;;;;;;27.96;24.31;94218.91;5091561;28;20221;-73
2022/04/25 11:28:12;;;;;;;8.82;2.67;;;;;;;27.72;24.41;94217.28;5090690;28;20193;-77
2022/04/25 11:30:41;;;;;;;12.48;2.53;;;;;;;27.86;24.56;94224.34;5091119;28;20225;-77
2022/04/25 11:33:09;;;;;;;10.00;3.35;;;;;;;28.02;24.03;94224.19;5090921;28;20205;-75
2022/04/25 11:35:37;;;;;;;5.32;2.83;;;;;;;28.08;24.18;94214.84;5090747;28;20198;-75
2022/04/25 11:38:04;;;;;;;9.40;2.88;;;;;;;28.26;23.87;94212.72;5091254;28;20656;-75
2022/04/25 11:40:31;;;;;;;15.25;3.83;;;;;;;28.08;24.25;94212.25;5090495;28;20575;-75
2022/04/25 11:43:03;;;;;;;9.10;2.38;;;;;;;28.06;22.81;94193.31;5090859;28;20205;-75
2022/04/25 11:45:30;;;;;;;11.90;2.42;;;;;;;27.96;22.84;94205.84;5091060;28;20629;-75
2022/04/25 11:47:59;;;;;;;13.00;3.22;;;;;;;28.07;23.46;94211.44;5091146;28;20722;-75
2022/04/25 11:50:26;;;;;;;4.55;2.60;;;;;;;28.28;21.90;94208.13;5091166;28;20209;-75
2022/04/25 11:52:56;;;;;;;11.80;2.22;;;;;;;28.47;21.18;94211.19;5090534;28;20194;-74